createdAt,value
2019-01-19T00:31:48.262Z,44.10
2019-01-19T02:37:38.869Z,4.30
2019-01-19T04:19:54.584Z,2.70
2019-01-19T04:22:12.160Z,2.60
2019-01-19T06:52:14.929Z,2.13
2019-01-19T07:00:05.643Z,2.37
2019-01-19T07:02:10.033Z,2.30
2019-01-19T07:04:14.225Z,2.10
2019-01-19T07:09:24.650Z,3.03
2019-01-19T07:34:52.482Z,3.40
2019-01-19T07:36:57.464Z,3.40
2019-01-19T07:39:02.830Z,3.50
2019-01-19T07:41:27.019Z,4.10
2019-01-19T07:43:50.516Z,4.00
2019-01-19T07:50:55.828Z,4.40
2019-01-19T08:03:57.163Z,403.03
2019-01-19T08:11:27.216Z,830.73
2019-01-19T08:13:32.699Z,920.80
2019-01-19T08:15:37.137Z,778.00
2019-01-19T08:17:41.444Z,300.43
2019-01-19T08:20:25.317Z,226.37
2019-01-19T08:25:15.111Z,231.03
2019-01-19T08:27:22.833Z,72.97
2019-01-19T08:29:30.636Z,16.23
2019-01-19T08:31:36.570Z,792.43
2019-01-19T08:33:42.743Z,730.07
2019-01-19T08:35:47.853Z,143.37
2019-01-19T08:37:57.490Z,44.77
2019-01-19T08:40:04.052Z,16.60
2019-01-19T08:42:10.037Z,17.23
2019-01-19T08:44:15.596Z,26.33
2019-01-19T08:46:23.222Z,6.33
2019-01-19T08:48:32.693Z,16.87
2019-01-19T08:50:39.099Z,17.93
2019-01-19T08:52:43.769Z,49.73
2019-01-19T08:54:48.572Z,10.67
2019-01-19T08:56:53.025Z,102.40
2019-01-19T09:01:40.098Z,6.43
2019-01-19T09:03:44.528Z,6.50
2019-01-19T09:05:53.847Z,6.40
2019-01-19T09:07:58.984Z,6.50
2019-01-19T09:10:04.347Z,6.00
2019-01-19T09:12:08.994Z,6.50
2019-01-19T09:14:13.173Z,103.90
2019-01-19T09:16:20.533Z,19.73
2019-01-19T09:18:27.824Z,6.90
2019-01-19T09:20:34.372Z,7.20
2019-01-19T09:22:39.172Z,246.10
2019-01-19T09:24:45.187Z,11.53
2019-01-19T09:26:49.655Z,17.47
2019-01-19T09:28:53.990Z,116.67
2019-01-19T09:31:02.303Z,14.40
2019-01-19T09:33:08.484Z,17.33
2019-01-19T09:35:12.785Z,7.60
2019-01-19T09:37:17.312Z,6.67
2019-01-19T09:47:38.846Z,6.10
2019-01-19T09:49:47.166Z,6.70
2019-01-19T09:51:51.740Z,7.10
2019-01-19T09:54:00.719Z,6.57
2019-01-19T09:56:05.970Z,6.20
2019-01-19T10:01:21.680Z,54.83
2019-01-19T10:08:24.144Z,6.60
2019-01-19T10:10:29.402Z,6.37
2019-01-19T10:12:33.645Z,36.17
2019-01-19T10:14:37.889Z,598.73
2019-01-19T10:16:45.408Z,701.43
2019-01-19T10:18:51.529Z,526.30
2019-01-19T10:20:56.755Z,279.13
2019-01-19T10:23:08.295Z,34.17
2019-01-19T10:25:28.537Z,10.77
2019-01-19T10:27:37.405Z,382.57
2019-01-19T11:26:29.147Z,7.47
2019-01-19T14:44:32.827Z,4.77
2019-01-19T15:06:02.871Z,4.63
2019-01-19T15:54:18.182Z,370.30
2019-01-19T15:57:11.576Z,754.53
2019-01-19T15:59:59.646Z,365.57
2019-01-19T16:02:47.447Z,45.87
2019-01-19T16:05:41.772Z,34.13
2019-01-19T16:08:26.547Z,75.30
2019-01-19T16:11:07.805Z,15.37
2019-01-19T16:13:31.073Z,8.27
2019-01-19T16:16:00.380Z,7.70
2019-01-19T16:18:45.984Z,6.80
2019-01-19T16:21:15.990Z,7.30
2019-01-19T16:23:46.825Z,6.53
2019-01-19T16:26:28.910Z,5.10
2019-01-19T16:29:17.866Z,6.00
2019-01-19T16:32:32.486Z,6.60
2019-01-19T16:35:00.889Z,5.70
2019-01-19T16:37:17.347Z,5.97
2019-01-19T16:51:08.869Z,6.47
2019-01-19T16:53:36.224Z,6.23
2019-01-19T16:56:19.148Z,6.17
2019-01-19T16:59:04.078Z,5.43
2019-01-19T17:01:44.990Z,6.40
2019-01-19T17:04:40.126Z,5.90
2019-01-19T17:07:20.369Z,6.23
2019-01-19T17:10:03.980Z,5.70
2019-01-19T17:13:03.549Z,5.70
2019-01-19T17:15:43.371Z,5.57
2019-01-19T17:18:32.745Z,5.90
2019-01-19T18:52:21.579Z,8.23
2019-01-19T19:48:27.872Z,13.90
2019-01-19T19:54:00.181Z,12.33
2019-01-19T19:56:02.975Z,10.10
2019-01-19T19:58:08.839Z,9.40
2019-01-19T20:00:15.366Z,8.33
2019-01-19T20:18:20.784Z,123.70
2019-01-19T20:23:09.257Z,312.03
2019-01-19T20:25:26.934Z,109.40
2019-01-19T20:30:11.149Z,220.80
2019-01-19T20:35:26.296Z,68.33
2019-01-19T20:37:31.177Z,15.90
2019-01-19T20:51:11.474Z,8.93
2019-01-19T20:53:28.706Z,9.13
2019-01-19T21:04:35.445Z,133.33
2019-01-19T21:06:39.898Z,160.57
2019-01-19T21:08:45.577Z,360.47
2019-01-19T21:10:51.426Z,243.40
2019-01-19T21:12:57.992Z,42.60
2019-01-19T21:15:07.606Z,14.43
2019-01-19T21:17:18.400Z,11.30
2019-01-19T21:38:53.059Z,47.73
2019-01-19T21:40:57.947Z,45.73
2019-01-19T21:43:04.628Z,22.30
2019-01-19T21:45:20.416Z,13.43
2019-01-19T21:53:58.742Z,14.13
2019-01-19T21:59:20.290Z,315.33
2019-01-19T22:01:37.620Z,118.57
